Molengracht — PCJG — position and weather

sailwx.info

Track history (hours):
 
Tides and Currents Weather Stations Pressure Air Temp Water Temp Dewpoint Dewpoint Depression Visibility Wind Speed Wind Dir Waves Ship Positions

Molengracht

Last reported at 2015-Mar-03 22:21 UTC. Time now 2015-Mar-06 11:00 UTC.
Position N 35°57' E 120°41'.

Length 143 m; draft 7.2 m.

Type: Cargo ship. MMSI: 246770000.

Date/timePositionNaut miles runAvg speedWind from/ knotsBaromVisibWave heightAir tempDewpointWater temp
2015-Mar-03 22:21N 35°57' E 120°41'1214.7
2015-Mar-03 21:33N 35°60' E 120°27'10 0.2
2015-Mar-02 07:17N 36°03' E 120°16'7 9.3
2015-Mar-02 06:33N 36°01' E 120°24'83 1.6
2015-Feb-28 03:26N 34°47' E 119°37'8 9.7
2015-Feb-28 02:33N 34°45' E 119°27'0 0.4
2015-Feb-28 01:30N 34°44' E 119°27'0 0.0
2015-Feb-28 00:30N 34°44' E 119°27'0 0.0
2015-Feb-27 23:31N 34°44' E 119°27'0 0.0
2015-Feb-27 22:30N 34°44' E 119°27'0 0.0
2015-Feb-27 21:24N 34°44' E 119°27'0 0.0
2015-Feb-27 20:30N 34°44' E 119°27'0 0.0
2015-Feb-27 19:30N 34°44' E 119°27'0 0.0
2015-Feb-27 18:31N 34°44' E 119°27'0 0.0
2015-Feb-27 17:30N 34°44' E 119°27'0 0.0
2015-Feb-27 16:30N 34°44' E 119°27'0 0.0
2015-Feb-27 15:30N 34°44' E 119°27'0 0.0
2015-Feb-27 02:30N 34°44' E 119°27'0 0.0
2015-Feb-27 01:30N 34°44' E 119°27'0 0.0
2015-Feb-27 00:30N 34°44' E 119°27'0 0.0
2015-Feb-26 23:30N 34°44' E 119°27'0 0.0
2015-Feb-26 22:24N 34°44' E 119°27'0 0.0
2015-Feb-26 21:30N 34°44' E 119°27'0 0.0
2015-Feb-26 20:30N 34°44' E 119°27'0 0.0
2015-Feb-26 19:30N 34°44' E 119°27'0 0.0
2015-Feb-26 18:18N 34°44' E 119°27'0 0.0
2015-Feb-26 17:30N 34°44' E 119°27'0 0.0
2015-Feb-26 16:30N 34°44' E 119°27'0 0.0
2015-Feb-26 15:30N 34°44' E 119°27'0 0.0
2015-Feb-26 14:30N 34°44' E 119°27'0 0.0
2015-Feb-26 13:30N 34°44' E 119°27'0 0.0
2015-Feb-26 12:30N 34°44' E 119°27'0 0.0
2015-Feb-26 11:24N 34°44' E 119°27'0 0.0
2015-Feb-26 10:30N 34°44' E 119°27'0 0.0
2015-Feb-26 09:30N 34°44' E 119°27'0 0.0
2015-Feb-26 08:24N 34°44' E 119°27'0 0.0
2015-Feb-26 07:18N 34°44' E 119°27'0 0.0
2015-Feb-26 06:30N 34°44' E 119°27'0 0.0
2015-Feb-26 05:18N 34°44' E 119°27'0 0.0
2015-Feb-26 04:30N 34°44' E 119°27'0 0.0
2015-Feb-26 03:24N 34°44' E 119°27'0 0.0
2015-Feb-26 02:30N 34°44' E 119°27'6 5.9
2015-Feb-26 01:27N 34°46' E 119°34'6 7.2
2015-Feb-26 00:33N 34°49' E 119°41'3 0.2
2015-Feb-25 12:27N 34°51' E 119°43'0 0.0
2015-Feb-25 08:20N 34°51' E 119°43'0 0.0
2015-Feb-25 06:32N 34°51' E 119°43'  
Track history (hours):
 
Tides and Currents Weather Stations Pressure Air Temp Water Temp Dewpoint Dewpoint Depression Visibility Wind Speed Wind Dir Waves Ship Positions

Molengracht

Last reported at 2015-Mar-03 22:21 UTC. Time now 2015-Mar-06 11:00 UTC.
Position N 35°57' E 120°41'.

Length 143 m; draft 7.2 m.

Type: Cargo ship. MMSI: 246770000.

Date/timePositionNaut miles runAvg speedWind from/ knotsBaromVisibWave heightAir tempDewpointWater temp
2015-Mar-03 22:21N 35°57' E 120°41'1214.7
2015-Mar-03 21:33N 35°60' E 120°27'10 0.2
2015-Mar-02 07:17N 36°03' E 120°16'7 9.3
2015-Mar-02 06:33N 36°01' E 120°24'83 1.6
2015-Feb-28 03:26N 34°47' E 119°37'8 9.7
2015-Feb-28 02:33N 34°45' E 119°27'0 0.4
2015-Feb-28 01:30N 34°44' E 119°27'0 0.0
2015-Feb-28 00:30N 34°44' E 119°27'0 0.0
2015-Feb-27 23:31N 34°44' E 119°27'0 0.0
2015-Feb-27 22:30N 34°44' E 119°27'0 0.0
2015-Feb-27 21:24N 34°44' E 119°27'0 0.0
2015-Feb-27 20:30N 34°44' E 119°27'0 0.0
2015-Feb-27 19:30N 34°44' E 119°27'0 0.0
2015-Feb-27 18:31N 34°44' E 119°27'0 0.0
2015-Feb-27 17:30N 34°44' E 119°27'0 0.0
2015-Feb-27 16:30N 34°44' E 119°27'0 0.0
2015-Feb-27 15:30N 34°44' E 119°27'0 0.0
2015-Feb-27 02:30N 34°44' E 119°27'0 0.0
2015-Feb-27 01:30N 34°44' E 119°27'0 0.0
2015-Feb-27 00:30N 34°44' E 119°27'0 0.0
2015-Feb-26 23:30N 34°44' E 119°27'0 0.0
2015-Feb-26 22:24N 34°44' E 119°27'0 0.0
2015-Feb-26 21:30N 34°44' E 119°27'0 0.0
2015-Feb-26 20:30N 34°44' E 119°27'0 0.0
2015-Feb-26 19:30N 34°44' E 119°27'0 0.0
2015-Feb-26 18:18N 34°44' E 119°27'0 0.0
2015-Feb-26 17:30N 34°44' E 119°27'0 0.0
2015-Feb-26 16:30N 34°44' E 119°27'0 0.0
2015-Feb-26 15:30N 34°44' E 119°27'0 0.0
2015-Feb-26 14:30N 34°44' E 119°27'0 0.0
2015-Feb-26 13:30N 34°44' E 119°27'0 0.0
2015-Feb-26 12:30N 34°44' E 119°27'0 0.0
2015-Feb-26 11:24N 34°44' E 119°27'0 0.0
2015-Feb-26 10:30N 34°44' E 119°27'0 0.0
2015-Feb-26 09:30N 34°44' E 119°27'0 0.0
2015-Feb-26 08:24N 34°44' E 119°27'0 0.0
2015-Feb-26 07:18N 34°44' E 119°27'0 0.0
2015-Feb-26 06:30N 34°44' E 119°27'0 0.0
2015-Feb-26 05:18N 34°44' E 119°27'0 0.0
2015-Feb-26 04:30N 34°44' E 119°27'0 0.0
2015-Feb-26 03:24N 34°44' E 119°27'0 0.0
2015-Feb-26 02:30N 34°44' E 119°27'6 5.9
2015-Feb-26 01:27N 34°46' E 119°34'6 7.2
2015-Feb-26 00:33N 34°49' E 119°41'3 0.2
2015-Feb-25 12:27N 34°51' E 119°43'0 0.0
2015-Feb-25 08:20N 34°51' E 119°43'0 0.0
2015-Feb-25 06:32N 34°51' E 119°43'  

Dump ship's entire track history